Time;durP1;ratioP1;P1;durP2;ratioP2;P2;SDS_P1;SDS_P2;PMS_P1;PMS_P2;Temp;Humidity;BMP_temperature;BMP_pressure;BME280_temperature;BME280_humidity;BME280_pressure;Samples;Min_cycle;Max_cycle;Signal;HPM_P1;HPM_P2
2023/08/13 00:00:53;;;;;;;3.08;1.58;;;;;;;21.35;76.35;100821.19;4098835;29;20332;-62
2023/08/13 00:02:56;;;;;;;4.88;1.70;;;;;;;21.33;76.36;100820.38;4095621;28;20122;-62
2023/08/13 00:04:59;;;;;;;3.25;1.20;;;;;;;21.30;76.39;100820.44;4082505;29;20063;-62
2023/08/13 00:07:02;;;;;;;3.67;1.55;;;;;;;21.30;76.67;100815.16;4097705;28;20046;-62
2023/08/13 00:09:07;;;;;;;2.30;1.25;;;;;;;21.26;76.54;100809.94;4098973;28;20041;-63
2023/08/13 00:11:12;;;;;;;4.35;1.50;;;;;;;21.27;76.54;100811.69;4095925;28;20039;-63
2023/08/13 00:13:16;;;;;;;2.20;1.30;;;;;;;21.24;76.64;100814.38;4082218;29;20510;-63
2023/08/13 00:15:18;;;;;;;5.87;1.87;;;;;;;21.22;76.91;100816.22;4096402;28;20118;-63
2023/08/13 00:17:21;;;;;;;12.27;1.95;;;;;;;21.19;77.19;100805.72;4082467;29;20310;-63
2023/08/13 00:19:24;;;;;;;4.78;1.42;;;;;;;21.18;77.33;100806.59;4094000;29;20035;-63
2023/08/13 00:21:26;;;;;;;7.35;1.60;;;;;;;21.18;77.23;100805.75;4094484;29;20087;-63
2023/08/13 00:23:29;;;;;;;1.98;1.30;;;;;;;21.20;77.14;100807.47;4094443;29;20043;-62
2023/08/13 00:25:32;;;;;;;1.58;1.20;;;;;;;21.19;77.15;100807.50;4096583;29;20737;-62
2023/08/13 00:27:36;;;;;;;6.25;1.85;;;;;;;21.19;77.23;100804.84;4096616;29;20050;-62
2023/08/13 00:29:40;;;;;;;;;;;;;;;21.06;77.52;100799.84;4079978;29;20075;-62
2023/08/13 00:31:43;;;;;;;1.65;1.27;;;;;;;21.08;77.61;100805.97;4070933;29;19922;-63
2023/08/13 00:33:46;;;;;;;2.38;1.27;;;;;;;21.12;77.40;100801.47;4093644;28;20043;-62
2023/08/13 00:35:50;;;;;;;6.28;1.67;;;;;;;21.10;77.44;100805.94;4085266;29;20391;-63
2023/08/13 00:37:53;;;;;;;1.60;1.25;;;;;;;21.10;77.33;100808.59;4080386;29;20047;-62
2023/08/13 00:39:57;;;;;;;3.20;1.20;;;;;;;21.10;77.35;100803.31;4080622;29;20063;-62
2023/08/13 00:41:59;;;;;;;2.88;1.48;;;;;;;21.11;77.27;100794.44;4097325;29;20048;-62
2023/08/13 00:44:07;;;;;;;2.90;1.30;;;;;;;21.09;77.25;100804.19;4072755;29;20408;-62
2023/08/13 00:46:11;;;;;;;6.18;1.10;;;;;;;21.08;77.40;100810.38;4079779;29;20075;-62
2023/08/13 00:48:14;;;;;;;4.88;1.13;;;;;;;21.04;77.64;100808.72;4074532;29;20485;-62
2023/08/13 00:50:18;;;;;;;4.95;1.38;;;;;;;21.01;77.48;100804.38;4078478;29;20513;-62
2023/08/13 00:52:21;;;;;;;2.80;1.40;;;;;;;20.99;77.56;100802.69;4073812;29;20064;-62
2023/08/13 00:54:24;;;;;;;2.22;1.52;;;;;;;20.99;77.78;100797.38;4081327;29;20118;-62
2023/08/13 00:56:27;;;;;;;4.30;1.48;;;;;;;20.99;77.70;100798.25;4097290;29;20039;-62
2023/08/13 00:58:30;;;;;;;5.68;1.60;;;;;;;21.02;77.56;100797.31;4094297;29;20089;-63
2023/08/13 01:00:35;;;;;;;3.20;1.40;;;;;;;21.01;77.70;100793.81;4089032;28;20414;-62
2023/08/13 01:02:38;;;;;;;4.15;1.33;;;;;;;20.99;77.78;100798.25;4081224;29;20048;-63
2023/08/13 01:04:41;;;;;;;1.10;1.00;;;;;;;20.97;77.99;100792.16;4080739;29;20039;-63
2023/08/13 01:06:51;;;;;;;3.92;1.20;;;;;;;20.97;78.22;100801.81;4096830;29;20122;-63
2023/08/13 01:09:05;;;;;;;8.85;1.60;;;;;;;20.96;77.64;100805.41;4077602;29;20091;-63
2023/08/13 01:11:18;;;;;;;5.68;1.52;;;;;;;20.94;77.88;100813.38;4079605;29;20075;-61
2023/08/13 01:13:26;;;;;;;2.42;1.30;;;;;;;20.94;77.97;100808.06;4092351;29;20035;-63
2023/08/13 01:15:35;;;;;;;5.28;1.80;;;;;;;20.91;77.85;100809.00;4091217;28;20082;-60
2023/08/13 01:17:40;;;;;;;4.20;1.92;;;;;;;20.88;78.18;100801.16;4095045;29;20576;-62
2023/08/13 01:19:44;;;;;;;2.20;1.60;;;;;;;20.89;77.98;100805.50;4081261;29;20069;-62
2023/08/13 01:21:46;;;;;;;3.47;1.70;;;;;;;20.85;78.00;100803.88;4073686;29;20065;-62
2023/08/13 01:23:53;;;;;;;3.60;1.73;;;;;;;20.86;78.10;100797.66;4095232;29;20043;-63
2023/08/13 01:25:59;;;;;;;6.13;1.23;;;;;;;20.86;78.21;100800.31;4084064;29;20039;-63
2023/08/13 01:28:09;;;;;;;2.70;1.50;;;;;;;20.86;78.08;100799.44;4080167;29;20040;-62
2023/08/13 01:30:17;;;;;;;6.40;1.60;;;;;;;20.84;78.02;100804.75;4081289;29;20048;-61
2023/08/13 01:32:25;;;;;;;6.95;2.22;;;;;;;20.83;78.14;100804.81;4080912;29;20036;-63
2023/08/13 01:34:28;;;;;;;5.60;1.60;;;;;;;20.83;77.97;100795.09;4096064;29;20028;-62
2023/08/13 01:36:32;;;;;;;5.78;1.42;;;;;;;20.83;78.13;100787.16;4076884;29;20042;-62
2023/08/13 01:38:36;;;;;;;4.03;1.40;;;;;;;20.83;78.28;100800.38;4076629;29;20040;-62
2023/08/13 01:40:41;;;;;;;6.90;1.45;;;;;;;20.82;78.35;100795.13;4095806;28;20039;-61
2023/08/13 01:42:44;;;;;;;6.88;1.60;;;;;;;20.82;78.44;100798.66;4077689;29;20074;-62
2023/08/13 01:44:46;;;;;;;5.20;1.73;;;;;;;20.81;78.38;100804.84;4081372;29;20036;-62
2023/08/13 01:46:50;;;;;;;4.43;1.67;;;;;;;20.80;78.55;100804.88;4082503;29;20043;-62
2023/08/13 01:48:52;;;;;;;3.42;1.58;;;;;;;20.79;78.64;100797.84;4081310;29;20463;-62
2023/08/13 01:50:55;;;;;;;5.10;1.45;;;;;;;20.80;78.60;100800.44;4075112;29;20043;-62
2023/08/13 01:52:58;;;;;;;3.05;1.77;;;;;;;20.80;78.61;100799.59;4072354;29;20032;-62
2023/08/13 01:54:59;;;;;;;3.72;1.73;;;;;;;20.78;78.44;100798.75;4082478;29;20124;-62
2023/08/13 01:57:05;;;;;;;4.10;1.63;;;;;;;20.78;78.58;100793.44;4077621;29;20063;-62
2023/08/13 01:59:08;;;;;;;4.07;1.88;;;;;;;20.76;78.58;100788.22;4082138;29;20195;-62
2023/08/13 02:01:11;;;;;;;3.03;1.42;;;;;;;20.77;78.75;100794.38;4078485;29;20590;-62
2023/08/13 02:03:14;;;;;;;3.83;1.50;;;;;;;20.73;78.41;100796.22;4080520;29;20039;-62
2023/08/13 02:05:17;;;;;;;4.47;1.53;;;;;;;20.72;78.66;100799.75;4082555;29;20127;-62
2023/08/13 02:07:20;;;;;;;4.30;1.63;;;;;;;20.70;78.75;100796.28;4081461;29;20386;-62
2023/08/13 02:09:23;;;;;;;6.28;1.65;;;;;;;20.70;78.49;100802.41;4079658;29;20091;-62
2023/08/13 02:11:26;;;;;;;2.97;1.92;;;;;;;20.71;78.56;100803.31;4080130;29;20058;-62
2023/08/13 02:13:30;;;;;;;5.93;1.65;;;;;;;20.70;78.72;100801.56;4076238;29;20095;-62
2023/08/13 02:15:33;;;;;;;4.90;1.88;;;;;;;20.66;78.85;100802.50;4080223;29;20048;-62
2023/08/13 02:17:36;;;;;;;2.72;1.55;;;;;;;20.62;79.25;100803.47;4077963;29;20198;-62
2023/08/13 02:19:39;;;;;;;3.08;1.50;;;;;;;20.62;78.97;100814.91;4075555;29;20516;-62
2023/08/13 02:21:42;;;;;;;2.55;1.95;;;;;;;20.63;79.10;100810.50;4080591;29;20091;-62
2023/08/13 02:23:46;;;;;;;3.38;1.70;;;;;;;20.65;79.19;100808.72;4074087;29;20432;-62
2023/08/13 02:25:50;;;;;;;2.40;1.42;;;;;;;20.67;79.16;100809.56;4085100;29;20592;-62
2023/08/13 02:27:52;;;;;;;4.63;2.17;;;;;;;20.70;79.15;100814.78;4063883;29;20047;-62
2023/08/13 02:29:57;;;;;;;3.28;1.83;;;;;;;20.68;79.16;100812.16;4094159;23;20467;-60
2023/08/13 02:32:00;;;;;;;3.08;1.35;;;;;;;20.70;79.20;100820.06;4078182;29;20048;-60
2023/08/13 02:34:03;;;;;;;4.32;1.85;;;;;;;20.68;79.19;100811.31;4079939;29;20094;-59
2023/08/13 02:36:06;;;;;;;6.50;1.83;;;;;;;20.69;79.04;100819.19;4085265;29;20075;-60
2023/08/13 02:38:11;;;;;;;5.13;1.88;;;;;;;20.69;79.11;100815.66;4072639;29;20483;-60
2023/08/13 02:40:14;;;;;;;3.53;2.03;;;;;;;20.67;79.03;100815.69;4090306;29;20498;-59
2023/08/13 02:42:18;;;;;;;5.80;1.98;;;;;;;20.67;79.25;100806.91;4079264;29;20529;-60
2023/08/13 02:44:25;;;;;;;5.65;1.65;;;;;;;20.69;79.39;100819.19;4089649;29;20051;-60
2023/08/13 02:46:29;;;;;;;2.63;1.75;;;;;;;20.71;79.15;100819.16;4075840;29;20031;-60
2023/08/13 02:48:32;;;;;;;5.75;2.00;;;;;;;20.70;79.42;100814.78;4063181;29;20083;-59
2023/08/13 02:50:34;;;;;;;3.08;1.70;;;;;;;20.71;79.63;100811.25;4075076;29;20134;-60
2023/08/13 02:52:37;;;;;;;6.47;2.00;;;;;;;20.73;79.61;100809.41;4079402;29;20036;-60
2023/08/13 02:54:40;;;;;;;5.15;2.40;;;;;;;20.73;79.55;100810.31;4079223;29;20040;-60
2023/08/13 02:56:43;;;;;;;2.97;2.13;;;;;;;20.74;79.38;100803.25;4092672;29;20401;-60
2023/08/13 02:58:46;;;;;;;6.70;1.77;;;;;;;20.72;79.57;100805.91;4076176;29;20048;-60
2023/08/13 03:00:49;;;;;;;3.28;2.03;;;;;;;20.71;79.56;100805.94;4071433;29;20073;-60
2023/08/13 03:02:53;;;;;;;7.97;1.92;;;;;;;20.72;79.63;100802.38;4079648;29;20039;-59
2023/08/13 03:04:57;;;;;;;;;;;;;;;20.63;80.01;100805.22;4078697;29;20074;-60
2023/08/13 03:07:00;;;;;;;4.63;2.00;;;;;;;20.64;79.89;100801.69;4076105;29;20009;-60
2023/08/13 03:09:03;;;;;;;3.45;1.85;;;;;;;20.65;79.89;100799.00;4071818;29;20135;-60
2023/08/13 03:11:06;;;;;;;7.75;2.28;;;;;;;20.67;79.74;100799.00;4075303;29;20055;-59
2023/08/13 03:13:09;;;;;;;4.05;1.63;;;;;;;20.67;79.68;100805.13;4079546;29;20499;-59
2023/08/13 03:15:12;;;;;;;3.22;1.85;;;;;;;20.66;79.60;100808.69;4077511;29;20096;-60
2023/08/13 03:17:15;;;;;;;5.55;2.28;;;;;;;20.66;79.53;100807.78;4091871;29;20039;-60
2023/08/13 03:19:20;;;;;;;3.85;2.42;;;;;;;20.60;79.66;100814.06;4094023;29;20046;-60
2023/08/13 03:21:23;;;;;;;4.53;2.47;;;;;;;20.58;79.86;100806.19;4063901;29;20143;-60
2023/08/13 03:23:27;;;;;;;4.32;2.15;;;;;;;20.58;79.94;100802.69;4090827;29;20043;-60
2023/08/13 03:25:30;;;;;;;5.75;2.60;;;;;;;20.62;79.68;100798.19;4072467;29;20028;-59
2023/08/13 03:27:33;;;;;;;4.43;2.60;;;;;;;20.61;79.79;100804.38;4081957;29;20047;-59
2023/08/13 03:29:36;;;;;;;4.63;2.20;;;;;;;20.62;79.86;100800.81;4078157;29;20076;-60
2023/08/13 03:31:40;;;;;;;3.05;2.05;;;;;;;20.61;79.85;100807.03;4075814;29;20036;-60
2023/08/13 03:33:55;;;;;;;4.95;2.30;;;;;;;20.55;80.14;100802.75;4079679;29;20055;-59
2023/08/13 03:36:00;;;;;;;4.55;2.25;;;;;;;20.56;80.10;100808.00;4079604;29;20043;-60
2023/08/13 03:38:03;;;;;;;6.40;2.28;;;;;;;20.53;80.19;100802.78;4077430;29;20043;-60
2023/08/13 03:40:08;;;;;;;;;;;;;;;20.45;80.43;100799.41;4069212;29;20040;-60
2023/08/13 03:42:12;;;;;;;9.20;2.50;;;;;;;20.43;80.66;100801.25;4081943;29;19923;-60
2023/08/13 03:44:15;;;;;;;9.25;2.80;;;;;;;20.48;80.46;100796.72;4081287;29;20287;-59
2023/08/13 03:46:18;;;;;;;6.38;2.28;;;;;;;20.50;80.24;100800.22;4081619;29;20138;-59
2023/08/13 03:48:21;;;;;;;6.25;3.17;;;;;;;20.49;80.36;100789.69;4082241;29;20052;-60
2023/08/13 03:50:24;;;;;;;3.72;2.53;;;;;;;20.49;80.50;100802.88;4077216;29;20043;-60
2023/08/13 03:52:27;;;;;;;7.32;2.72;;;;;;;20.49;80.37;100795.81;4061852;29;20086;-59
2023/08/13 03:54:31;;;;;;;7.50;2.17;;;;;;;20.51;80.24;100788.72;4082365;29;20043;-59
2023/08/13 03:56:34;;;;;;;8.80;2.83;;;;;;;20.48;80.33;100788.78;4077368;29;20072;-60
2023/08/13 03:58:38;;;;;;;6.63;3.13;;;;;;;20.48;80.24;100788.78;4079428;29;20063;-60
2023/08/13 04:00:43;;;;;;;5.85;2.92;;;;;;;20.46;80.35;100795.88;4095264;29;20509;-60
2023/08/13 04:02:49;;;;;;;4.15;2.97;;;;;;;20.44;80.55;100792.38;4081510;29;20078;-60
2023/08/13 04:04:52;;;;;;;5.43;2.40;;;;;;;20.40;80.80;100801.31;4062807;29;20112;-59
2023/08/13 04:06:55;;;;;;;5.53;2.60;;;;;;;20.40;80.75;100802.16;4072449;29;20039;-60
2023/08/13 04:09:00;;;;;;;4.78;2.40;;;;;;;20.42;80.66;100799.50;4076555;29;20063;-60
2023/08/13 04:11:08;;;;;;;5.95;2.72;;;;;;;20.40;80.80;100806.59;4077725;29;20048;-60
2023/08/13 04:13:11;;;;;;;5.05;2.40;;;;;;;20.42;80.65;100809.19;4078889;29;20139;-60
2023/08/13 04:15:16;;;;;;;4.60;2.75;;;;;;;20.42;80.61;100810.06;4076130;29;20118;-60
2023/08/13 04:17:19;;;;;;;7.00;2.72;;;;;;;20.39;80.61;100812.75;4078048;29;20489;-60
2023/08/13 04:19:22;;;;;;;4.05;2.70;;;;;;;20.39;80.69;100810.97;4078716;29;20043;-60
2023/08/13 04:21:25;;;;;;;4.30;2.45;;;;;;;20.39;80.75;100803.06;4077233;29;20056;-60
2023/08/13 04:23:28;;;;;;;3.97;2.67;;;;;;;20.39;80.67;100808.34;4081981;29;20039;-60
2023/08/13 04:25:32;;;;;;;4.72;2.38;;;;;;;20.40;80.51;100798.66;4080346;29;20035;-60
2023/08/13 04:27:35;;;;;;;8.57;3.00;;;;;;;20.39;80.46;100812.75;4080981;29;20467;-60
2023/08/13 04:29:38;;;;;;;5.35;2.92;;;;;;;20.36;80.72;100807.56;4078065;29;20052;-60
2023/08/13 04:31:41;;;;;;;7.38;2.38;;;;;;;20.34;80.66;100804.94;4081846;29;20048;-60
2023/08/13 04:33:44;;;;;;;8.13;3.08;;;;;;;20.33;80.90;100802.34;4081757;29;20039;-60
2023/08/13 04:35:52;;;;;;;4.20;2.92;;;;;;;20.36;80.71;100802.28;4077998;29;20040;-59
2023/08/13 04:37:57;;;;;;;3.25;2.47;;;;;;;20.34;80.71;100801.41;4091219;29;20043;-60
2023/08/13 04:40:00;;;;;;;5.97;2.78;;;;;;;20.34;80.82;100804.94;4090026;29;20069;-60
2023/08/13 04:42:07;;;;;;;6.03;2.65;;;;;;;20.34;80.66;100806.69;4078889;29;20268;-59
2023/08/13 04:44:11;;;;;;;6.75;3.08;;;;;;;20.34;80.79;100804.06;4089864;29;20043;-60
2023/08/13 04:46:14;;;;;;;6.75;2.58;;;;;;;20.36;80.89;100807.56;4089342;29;20481;-60
2023/08/13 04:48:42;;;;;;;5.47;2.78;;;;;;;20.36;80.81;100810.19;4073079;29;20039;-60
2023/08/13 04:50:48;;;;;;;4.75;2.75;;;;;;;20.32;81.06;100821.72;4074080;29;20417;-60
2023/08/13 04:52:50;;;;;;;3.88;2.90;;;;;;;20.34;81.02;100806.69;4063941;29;20044;-60
2023/08/13 04:54:54;;;;;;;5.35;2.55;;;;;;;20.36;80.88;100818.13;4088754;29;20038;-60
2023/08/13 04:56:59;;;;;;;3.88;2.75;;;;;;;20.36;80.84;100815.47;4080931;29;20066;-60
2023/08/13 04:59:04;;;;;;;6.45;2.70;;;;;;;20.37;80.83;100814.53;4086185;29;20071;-60
2023/08/13 05:01:07;;;;;;;7.63;3.45;;;;;;;20.37;80.72;100819.81;4080605;29;20102;-60
2023/08/13 05:03:12;;;;;;;;;;;;;;;20.28;81.26;100825.31;4079791;29;20067;-60
2023/08/13 05:05:16;;;;;;;6.00;2.63;;;;;;;20.30;81.19;100821.75;4079881;29;20428;-60
2023/08/13 05:07:19;;;;;;;4.78;2.50;;;;;;;20.34;81.19;100810.22;4088621;29;20104;-60
2023/08/13 05:09:22;;;;;;;4.35;3.03;;;;;;;20.38;81.15;100825.09;4076558;29;20044;-60
2023/08/13 05:11:25;;;;;;;4.53;2.88;;;;;;;20.42;81.01;100819.75;4097022;29;20453;-60
2023/08/13 05:13:28;;;;;;;7.95;3.63;;;;;;;20.43;81.04;100819.72;4085510;29;20098;-60
2023/08/13 05:15:33;;;;;;;4.53;3.05;;;;;;;20.42;81.24;100828.53;4080457;29;20134;-60
2023/08/13 05:17:36;;;;;;;5.95;2.80;;;;;;;20.44;81.19;100818.81;4094685;29;20066;-60
2023/08/13 05:19:39;;;;;;;5.18;2.50;;;;;;;20.45;81.23;100825.84;4079997;29;20044;-60
2023/08/13 05:21:42;;;;;;;3.80;2.90;;;;;;;20.48;81.06;100817.84;4086847;29;20040;-60
2023/08/13 05:23:45;;;;;;;5.40;2.97;;;;;;;20.50;81.21;100812.53;4077010;29;20047;-60
2023/08/13 05:25:49;;;;;;;4.85;2.63;;;;;;;20.50;81.09;100818.69;4080152;29;20114;-60
2023/08/13 05:27:53;;;;;;;6.82;3.50;;;;;;;20.51;81.13;100814.28;4071478;29;20040;-60
2023/08/13 05:29:56;;;;;;;5.57;2.95;;;;;;;20.53;81.10;100812.47;4074453;29;20043;-60
2023/08/13 05:32:16;;;;;;;7.38;2.75;;;;;;;20.55;81.07;100815.94;4076722;29;20494;-60
2023/08/13 05:34:19;;;;;;;5.55;2.58;;;;;;;20.54;81.16;100815.06;4081427;29;20044;-60
2023/08/13 05:36:24;;;;;;;7.03;3.22;;;;;;;20.60;80.99;100818.50;4077668;29;20588;-60
2023/08/13 05:38:27;;;;;;;2.88;2.55;;;;;;;20.60;81.03;100821.13;4071787;29;20502;-60
2023/08/13 05:40:31;;;;;;;3.38;2.33;;;;;;;20.62;81.38;100821.94;4089104;29;20134;-60
2023/08/13 05:42:35;;;;;;;4.13;2.78;;;;;;;20.66;81.07;100818.34;4079100;29;20643;-60
2023/08/13 05:44:38;;;;;;;6.93;3.20;;;;;;;20.67;81.13;100821.00;4075133;29;20470;-60
2023/08/13 05:46:41;;;;;;;3.13;2.30;;;;;;;20.67;81.39;100828.06;4072728;29;20474;-60
2023/08/13 05:48:45;;;;;;;3.55;2.38;;;;;;;20.67;81.50;100831.56;4069145;29;20099;-60
2023/08/13 05:50:48;;;;;;;4.38;2.42;;;;;;;20.69;81.45;100823.59;4089801;28;20123;-60
2023/08/13 05:52:51;;;;;;;2.90;2.50;;;;;;;20.67;81.88;100821.00;4076741;29;20063;-60
2023/08/13 05:54:54;;;;;;;3.88;2.40;;;;;;;20.67;82.00;100821.00;4073325;29;20510;-60
2023/08/13 05:56:57;;;;;;;5.15;2.70;;;;;;;20.71;82.22;100827.09;4073448;29;20028;-60
2023/08/13 05:59:00;;;;;;;4.68;2.92;;;;;;;20.70;82.51;100828.84;4070405;29;20050;-60
2023/08/13 06:01:03;;;;;;;4.53;2.80;;;;;;;20.79;82.27;100825.13;4075888;29;20043;-60
2023/08/13 06:03:06;;;;;;;4.88;2.97;;;;;;;20.76;81.95;100827.84;4069665;29;20403;-61
2023/08/13 06:05:11;;;;;;;7.85;2.85;;;;;;;20.81;81.22;100831.25;4076337;29;20079;-62
2023/08/13 06:07:13;;;;;;;5.00;3.13;;;;;;;20.80;81.42;100826.88;4074146;29;20064;-60
2023/08/13 06:09:16;;;;;;;4.22;2.60;;;;;;;20.88;81.19;100822.28;4071421;29;20112;-60
2023/08/13 06:11:19;;;;;;;4.07;2.75;;;;;;;20.96;81.16;100827.41;4076956;29;20044;-60
2023/08/13 06:13:22;;;;;;;5.03;2.78;;;;;;;20.96;81.07;100824.75;4077406;29;20475;-60
2023/08/13 06:15:25;;;;;;;4.35;2.78;;;;;;;20.99;80.92;100835.25;4078074;29;20115;-60
2023/08/13 06:17:27;;;;;;;7.20;3.17;;;;;;;21.07;80.75;100827.13;4075081;29;20115;-60
2023/08/13 06:19:30;;;;;;;5.95;2.67;;;;;;;21.02;80.59;100827.25;4075709;29;20493;-60
2023/08/13 06:21:34;;;;;;;5.80;2.97;;;;;;;21.09;80.48;100830.63;4075516;29;20520;-60
2023/08/13 06:23:38;;;;;;;9.15;3.03;;;;;;;21.15;80.28;100835.75;4077353;29;20042;-60
2023/08/13 06:25:41;;;;;;;4.43;2.63;;;;;;;21.19;80.13;100829.50;4077594;29;20094;-60
2023/08/13 06:27:44;;;;;;;4.50;2.50;;;;;;;21.22;79.78;100829.44;4076234;29;20122;-60
2023/08/13 06:29:47;;;;;;;7.32;2.67;;;;;;;21.23;79.86;100828.53;4077448;29;20051;-60
2023/08/13 06:32:09;;;;;;;5.25;2.22;;;;;;;21.21;80.17;100838.25;4073400;29;20044;-62
2023/08/13 06:34:13;;;;;;;4.93;3.05;;;;;;;21.25;80.18;100842.56;4078474;29;20126;-60
2023/08/13 06:36:16;;;;;;;5.55;2.38;;;;;;;21.35;80.02;100839.69;4068856;29;20134;-60
2023/08/13 06:38:22;;;;;;;4.05;2.28;;;;;;;21.43;79.19;100841.25;4077135;29;20063;-60
2023/08/13 06:40:25;;;;;;;4.72;2.50;;;;;;;21.42;79.14;100843.94;4075903;29;20040;-60
2023/08/13 06:42:28;;;;;;;5.57;2.58;;;;;;;21.47;78.60;100842.06;4078428;29;20076;-60
2023/08/13 06:44:30;;;;;;;4.85;2.30;;;;;;;21.45;78.62;100835.94;4079849;29;20079;-60
2023/08/13 06:46:33;;;;;;;6.25;2.60;;;;;;;21.51;78.01;100837.56;4076906;29;20047;-60
2023/08/13 06:48:38;;;;;;;5.45;2.58;;;;;;;21.55;78.41;100832.19;4076049;29;20092;-61
2023/08/13 06:50:41;;;;;;;6.95;2.30;;;;;;;21.52;78.74;100840.19;4077813;29;20102;-60
2023/08/13 06:52:43;;;;;;;3.17;2.13;;;;;;;21.54;78.67;100841.03;4073143;29;20040;-60
2023/08/13 06:54:48;;;;;;;4.63;2.55;;;;;;;21.57;78.73;100827.72;4077530;29;20046;-60
2023/08/13 06:56:50;;;;;;;3.65;2.28;;;;;;;21.67;78.53;100836.28;4074796;29;20134;-60
2023/08/13 06:58:53;;;;;;;4.03;2.38;;;;;;;21.72;78.18;100830.88;4091247;29;20094;-60
2023/08/13 07:00:55;;;;;;;4.65;1.83;;;;;;;21.72;78.53;100831.72;4076855;29;20039;-60
2023/08/13 07:02:58;;;;;;;4.53;2.30;;;;;;;21.83;78.01;100833.22;4080551;29;20498;-60
2023/08/13 07:05:03;;;;;;;4.93;2.10;;;;;;;21.87;77.83;100833.09;4078997;29;20047;-60
2023/08/13 07:07:06;;;;;;;3.75;2.38;;;;;;;22.00;77.15;100831.00;4080914;29;20553;-60
2023/08/13 07:09:10;;;;;;;;;;;;;;;21.86;77.47;100831.38;4080579;29;20118;-60
2023/08/13 07:11:14;;;;;;;5.18;2.10;;;;;;;21.88;77.08;100828.69;4080664;29;20009;-60
2023/08/13 07:13:17;;;;;;;2.60;2.13;;;;;;;21.91;77.11;100834.75;4076456;29;20055;-60
2023/08/13 07:15:20;;;;;;;2.58;1.63;;;;;;;21.96;77.04;100824.94;4077414;29;20048;-60
2023/08/13 07:17:22;;;;;;;2.50;1.60;;;;;;;22.03;76.60;100827.41;4077762;29;20052;-67
2023/08/13 07:19:26;;;;;;;3.13;2.20;;;;;;;22.05;75.76;100823.81;4080025;29;20126;-65
2023/08/13 07:21:28;;;;;;;2.85;1.83;;;;;;;22.21;75.66;100829.53;4079113;29;21830;-65
2023/08/13 07:23:31;;;;;;;4.28;1.95;;;;;;;22.39;74.50;100824.66;4096790;29;20035;-66
2023/08/13 07:25:34;;;;;;;9.10;2.20;;;;;;;22.35;74.42;100833.59;4077880;29;20063;-65
2023/08/13 07:27:39;;;;;;;4.68;2.03;;;;;;;22.33;74.67;100827.47;4077636;29;20040;-65
2023/08/13 07:29:41;;;;;;;3.92;2.35;;;;;;;22.35;74.51;100833.59;4079459;29;20047;-65
2023/08/13 07:31:44;;;;;;;7.72;2.25;;;;;;;22.44;74.62;100828.03;4079770;29;20047;-65
2023/08/13 07:33:47;;;;;;;6.07;2.20;;;;;;;22.49;74.39;100831.44;4081138;29;20410;-65
2023/08/13 07:35:50;;;;;;;7.45;2.10;;;;;;;22.46;73.93;100824.44;4080789;29;20487;-65
2023/08/13 07:37:53;;;;;;;2.22;1.80;;;;;;;22.60;73.91;100831.97;4077883;29;20110;-65
2023/08/13 07:39:57;;;;;;;3.55;2.30;;;;;;;22.66;73.78;100833.56;4093511;29;20035;-65
2023/08/13 07:41:59;;;;;;;2.43;1.63;;;;;;;22.75;74.24;100835.06;4080689;29;20086;-62
2023/08/13 07:44:05;;;;;;;3.03;1.90;;;;;;;22.78;73.82;100843.81;4075118;29;20717;-63
2023/08/13 07:46:08;;;;;;;5.03;1.90;;;;;;;22.83;74.09;100846.31;4079875;29;20090;-63
2023/08/13 07:48:11;;;;;;;2.78;1.58;;;;;;;22.85;73.42;100849.75;4079670;29;20497;-63
2023/08/13 07:50:14;;;;;;;4.00;1.95;;;;;;;22.88;73.57;100846.16;4091206;29;20071;-63
2023/08/13 07:52:17;;;;;;;3.28;2.58;;;;;;;22.93;72.78;100853.06;4078332;29;21811;-62
2023/08/13 07:54:20;;;;;;;2.72;1.80;;;;;;;22.95;72.66;100845.06;4079689;29;20123;-64
2023/08/13 07:56:23;;;;;;;6.33;2.40;;;;;;;23.04;72.39;100849.22;4073753;29;20044;-61
2023/08/13 07:58:26;;;;;;;3.53;2.17;;;;;;;23.15;71.68;100847.97;4077614;29;20529;-62
2023/08/13 08:00:30;;;;;;;4.68;1.70;;;;;;;23.24;71.30;100844.16;4078523;29;20035;-62
2023/08/13 08:02:33;;;;;;;8.65;2.30;;;;;;;23.37;71.15;100834.03;4074506;29;20083;-62
2023/08/13 08:04:36;;;;;;;3.78;1.73;;;;;;;23.50;71.02;100829.19;4075814;29;20048;-63
2023/08/13 08:06:39;;;;;;;5.18;2.20;;;;;;;23.41;70.53;100835.66;4074461;29;20039;-63
2023/08/13 08:08:42;;;;;;;3.60;1.90;;;;;;;23.37;68.61;100836.69;4061985;29;20044;-64
2023/08/13 08:10:45;;;;;;;4.75;1.90;;;;;;;23.27;69.34;100852.00;4078714;29;20032;-64
2023/08/13 08:12:48;;;;;;;3.63;1.90;;;;;;;23.26;69.63;100844.09;4078196;29;20150;-64
2023/08/13 08:14:51;;;;;;;4.03;1.80;;;;;;;23.40;68.99;100830.41;4076375;29;20383;-64
2023/08/13 08:17:00;;;;;;;5.85;1.85;;;;;;;23.53;68.76;100837.03;4077900;29;20509;-64
2023/08/13 08:19:03;;;;;;;3.60;1.70;;;;;;;23.57;67.77;100836.00;4091639;29;20482;-64
2023/08/13 08:21:05;;;;;;;7.05;2.00;;;;;;;23.58;66.67;100829.75;4095027;28;20126;-64
2023/08/13 08:23:13;;;;;;;4.07;1.60;;;;;;;23.61;66.67;100835.00;4079404;29;20071;-64
2023/08/13 08:25:16;;;;;;;3.30;1.63;;;;;;;23.61;67.35;100829.69;4076156;29;21139;-64
2023/08/13 08:27:18;;;;;;;5.43;2.00;;;;;;;23.72;66.84;100826.66;4075643;29;20071;-64
2023/08/13 08:29:21;;;;;;;3.90;1.50;;;;;;;23.75;67.11;100833.66;4093351;23;20119;-69
2023/08/13 08:31:24;;;;;;;4.05;1.70;;;;;;;23.85;67.56;100832.41;4099204;28;20079;-69
2023/08/13 08:33:27;;;;;;;3.47;1.63;;;;;;;23.98;66.77;100823.09;4102672;28;20054;-69
2023/08/13 08:35:31;;;;;;;3.60;1.67;;;;;;;23.99;66.70;100824.84;4110541;28;20196;-69
2023/08/13 08:37:35;;;;;;;3.00;1.73;;;;;;;24.01;66.47;100823.00;4106458;28;20035;-70
2023/08/13 08:39:38;;;;;;;4.43;2.03;;;;;;;24.09;66.65;100820.06;4095890;28;20039;-70
2023/08/13 08:41:47;;;;;;;4.32;1.85;;;;;;;24.18;66.03;100826.81;4104666;28;20039;-69
2023/08/13 08:43:51;;;;;;;2.60;1.58;;;;;;;24.16;64.41;100821.56;4101746;28;20050;-69
2023/08/13 08:45:56;;;;;;;5.53;1.88;;;;;;;24.13;63.59;100826.13;4105983;28;20041;-69
2023/08/13 08:48:00;;;;;;;3.53;1.60;;;;;;;24.13;63.92;100829.66;4100626;28;20195;-69
2023/08/13 08:50:07;;;;;;;4.65;1.65;;;;;;;24.22;63.57;100823.13;4106826;28;20129;-69
2023/08/13 08:52:11;;;;;;;5.07;1.80;;;;;;;24.26;63.67;100822.09;4103050;28;20054;-69
2023/08/13 08:54:14;;;;;;;3.50;1.40;;;;;;;24.29;63.66;100824.63;4104492;28;20089;-69
2023/08/13 08:56:17;;;;;;;4.60;1.88;;;;;;;24.34;64.18;100821.81;4110601;28;20057;-70
2023/08/13 08:58:21;;;;;;;3.25;1.65;;;;;;;24.36;63.77;100827.94;4105745;28;20041;-70
2023/08/13 09:00:23;;;;;;;4.72;2.38;;;;;;;24.42;64.27;100827.72;4099577;28;20066;-70
2023/08/13 09:02:38;;;;;;;3.97;1.50;;;;;;;24.43;61.56;100826.78;4100006;28;20040;-70
2023/08/13 09:04:41;;;;;;;3.78;1.60;;;;;;;24.53;62.24;100824.63;4105160;28;20070;-70
2023/08/13 09:06:58;;;;;;;4.13;1.58;;;;;;;24.55;61.25;100825.47;4100994;28;20043;-70
2023/08/13 09:09:01;;;;;;;4.15;1.73;;;;;;;24.55;60.56;100817.47;4103558;28;20062;-69
2023/08/13 09:11:04;;;;;;;3.78;1.30;;;;;;;24.54;59.55;100818.41;4107373;28;20537;-70
2023/08/13 09:13:07;;;;;;;2.83;1.48;;;;;;;24.52;59.19;100822.91;4104880;28;20153;-70
2023/08/13 09:15:12;;;;;;;3.88;1.88;;;;;;;24.52;58.25;100821.13;4105801;28;20117;-70
2023/08/13 09:17:14;;;;;;;3.40;1.63;;;;;;;24.55;59.40;100813.03;4092166;29;20061;-70
2023/08/13 09:19:18;;;;;;;3.65;1.85;;;;;;;24.61;59.76;100814.63;4097850;28;20497;-70
2023/08/13 09:21:25;;;;;;;3.55;1.73;;;;;;;24.67;59.54;100817.03;4101336;28;20496;-70
2023/08/13 09:23:29;;;;;;;3.40;1.90;;;;;;;24.68;58.60;100810.78;4100178;28;20494;-70
2023/08/13 09:25:32;;;;;;;;;;;;;;;24.67;59.05;100806.38;4106247;28;20101;-70
2023/08/13 09:27:36;;;;;;;4.85;1.85;;;;;;;24.64;56.93;100801.19;4101019;28;19922;-70
2023/08/13 09:29:39;;;;;;;4.38;1.67;;;;;;;24.60;57.66;100810.22;4101343;28;20381;-70
2023/08/13 09:31:42;;;;;;;4.97;2.00;;;;;;;24.62;57.85;100811.03;4101642;28;20046;-70
2023/08/13 09:33:46;;;;;;;6.30;1.88;;;;;;;24.66;58.30;100803.78;4106558;28;20085;-70
2023/08/13 09:35:49;;;;;;;4.40;1.95;;;;;;;24.58;56.09;100798.75;4103620;28;20046;-70
2023/08/13 09:37:52;;;;;;;4.18;1.90;;;;;;;24.64;57.17;100801.19;4104935;28;20039;-70